Time,TemperatureF,DewpointF,PressureIn,WindDirection,WindDirectionDegrees,WindSpeedMPH,WindSpeedGustMPH,Humidity,HourlyPrecipIn,Conditions,Clouds,dailyrainin,SoftwareType,DateUTC
2013-01-15 00:04:00,40.0,26.0,-100.00,NW,305,2.0,6.0,57,-99.99,,,-99.99,,2013-01-15 05:04:00,
2013-01-15 00:12:00,40.0,26.0,-100.00,West,260,2.0,6.0,58,-99.99,,,-99.99,,2013-01-15 05:12:00,
2013-01-15 00:22:00,39.0,26.0,-100.00,West,275,2.0,6.0,58,-99.99,,,-99.99,,2013-01-15 05:22:00,
2013-01-15 00:33:00,39.0,26.0,-100.00,West,275,2.0,5.0,59,-99.99,,,-99.99,,2013-01-15 05:33:00,
2013-01-15 00:42:00,39.0,26.0,-100.00,NNE,30,0.0,7.0,59,-99.99,,,-99.99,,2013-01-15 05:42:00,
2013-01-15 00:52:00,39.0,26.0,-100.00,WSW,245,2.0,7.0,59,-99.99,,,-99.99,,2013-01-15 05:52:00,
2013-01-15 01:03:00,39.0,26.0,-100.00,WNW,300,3.0,8.0,58,-99.99,,,-99.99,,2013-01-15 06:03:00,
2013-01-15 01:52:00,39.0,25.0,-100.00,WNW,295,2.0,7.0,58,-99.99,,,-99.99,,2013-01-15 06:52:00,
2013-01-15 02:02:00,39.0,25.0,-100.00,WNW,300,6.0,9.0,58,-99.99,,,-99.99,,2013-01-15 07:02:00,
2013-01-15 02:12:00,38.0,25.0,-100.00,West,280,2.0,6.0,58,-99.99,,,-99.99,,2013-01-15 07:12:00,
2013-01-15 02:22:00,38.0,25.0,-100.00,West,270,2.0,6.0,58,-99.99,,,-99.99,,2013-01-15 07:22:00,
2013-01-15 02:33:00,38.0,25.0,-100.00,West,280,2.0,5.0,58,-99.99,,,-99.99,,2013-01-15 07:33:00,
2013-01-15 03:30:00,36.0,25.0,-100.00,NW,320,1.0,5.0,64,-99.99,,,-99.99,,2013-01-15 08:30:00,
2013-01-15 03:43:00,37.0,25.0,-100.00,WSW,240,1.0,2.0,63,-99.99,,,-99.99,,2013-01-15 08:43:00,
2013-01-15 03:52:00,36.0,25.0,-100.00,West,280,1.0,1.0,64,-99.99,,,-99.99,,2013-01-15 08:52:00,
2013-01-15 04:02:00,36.0,25.0,-100.00,WNW,285,1.0,5.0,64,-99.99,,,-99.99,,2013-01-15 09:02:00,
2013-01-15 04:12:00,36.0,25.0,-100.00,NW,320,1.0,5.0,64,-99.99,,,-99.99,,2013-01-15 09:12:00,
2013-01-15 04:22:00,36.0,25.0,-100.00,NW,320,1.0,5.0,64,-99.99,,,-99.99,,2013-01-15 09:22:00,
2013-01-15 11:00:00,39.0,25.0,-100.00,NNE,20,2.0,10.0,58,-99.99,,,-99.99,,2013-01-15 16:00:00,
2013-01-15 11:03:00,37.0,25.0,-100.00,North,355,3.0,8.0,61,-99.99,,,-99.99,,2013-01-15 16:03:00,
2013-01-15 11:12:00,38.0,26.0,-100.00,North,350,2.0,7.0,61,-99.99,,,-99.99,,2013-01-15 16:12:00,
2013-01-15 11:23:00,38.0,25.0,-100.00,North,0,3.0,6.0,59,-99.99,,,-99.99,,2013-01-15 16:23:00,
2013-01-15 11:33:00,38.0,25.0,-100.00,North,0,3.0,6.0,59,-99.99,,,-99.99,,2013-01-15 16:33:00,
2013-01-15 11:43:00,39.0,25.0,-100.00,NNE,20,2.0,10.0,58,-99.99,,,-99.99,,2013-01-15 16:43:00,
2013-01-15 11:53:00,39.0,25.0,-100.00,NNE,20,2.0,10.0,58,-99.99,,,-99.99,,2013-01-15 16:53:00,
2013-01-15 12:33:00,40.0,25.0,-100.00,North,0,2.0,7.0,54,-99.99,,,-99.99,,2013-01-15 17:33:00,
2013-01-15 12:43:00,40.0,25.0,-100.00,NE,40,3.0,7.0,54,-99.99,,,-99.99,,2013-01-15 17:43:00,
2013-01-15 12:53:00,40.0,25.0,-100.00,WSW,255,2.0,7.0,54,-99.99,,,-99.99,,2013-01-15 17:53:00,
2013-01-15 13:03:00,41.0,25.0,-100.00,West,260,2.0,5.0,54,-99.99,,,-99.99,,2013-01-15 18:03:00,
2013-01-15 13:13:00,40.0,24.0,-100.00,SW,230,2.0,5.0,52,-99.99,,,-99.99,,2013-01-15 18:13:00,
2013-01-15 13:23:00,42.0,25.0,-100.00,North,5,2.0,7.0,52,-99.99,,,-99.99,,2013-01-15 18:23:00,
2013-01-15 13:33:00,41.0,25.0,-100.00,WNW,290,1.0,6.0,52,-99.99,,,-99.99,,2013-01-15 18:33:00,
2013-01-15 13:43:00,41.0,25.0,-100.00,West,260,1.0,3.0,52,-99.99,,,-99.99,,2013-01-15 18:43:00,
2013-01-15 13:53:00,41.0,25.0,-100.00,NNE,30,1.0,3.0,52,-99.99,,,-99.99,,2013-01-15 18:53:00,
2013-01-15 14:03:00,41.0,25.0,-100.00,West,260,2.0,5.0,52,-99.99,,,-99.99,,2013-01-15 19:03:00,
2013-01-15 14:13:00,41.0,25.0,-100.00,SW,220,1.0,5.0,52,-99.99,,,-99.99,,2013-01-15 19:13:00,
2013-01-15 14:33:00,41.0,25.0,-100.00,WSW,240,1.0,3.0,52,-99.99,,,-99.99,,2013-01-15 19:33:00,
2013-01-15 14:43:00,42.0,25.0,-100.00,NE,45,2.0,6.0,52,-99.99,,,-99.99,,2013-01-15 19:43:00,
2013-01-15 14:53:00,41.0,25.0,-100.00,North,350,1.0,3.0,51,-99.99,,,-99.99,,2013-01-15 19:53:00,
2013-01-15 15:04:00,41.0,24.0,-100.00,NNW,335,2.0,2.0,51,-99.99,,,-99.99,,2013-01-15 20:04:00,
2013-01-15 16:34:00,39.0,23.0,-100.00,NNE,30,1.0,5.0,52,-99.99,,,-99.99,,2013-01-15 21:34:00,
2013-01-15 16:43:00,39.0,22.0,-100.00,WNW,300,2.0,5.0,51,-99.99,,,-99.99,,2013-01-15 21:43:00,
2013-01-15 16:53:00,39.0,22.0,-100.00,WNW,300,2.0,5.0,51,-99.99,,,-99.99,,2013-01-15 21:53:00,
2013-01-15 17:00:00,37.0,23.0,-100.00,WNW,285,2.0,3.0,56,-99.99,,,-99.99,,2013-01-15 22:00:00,
2013-01-15 17:03:00,38.0,23.0,-100.00,West,280,1.0,2.0,53,-99.99,,,-99.99,,2013-01-15 22:03:00,
2013-01-15 17:12:00,38.0,23.0,-100.00,WNW,295,1.0,3.0,53,-99.99,,,-99.99,,2013-01-15 22:12:00,
2013-01-15 17:23:00,38.0,23.0,-100.00,WNW,295,1.0,3.0,53,-99.99,,,-99.99,,2013-01-15 22:23:00,
2013-01-15 17:33:00,37.0,22.0,-100.00,WNW,300,2.0,5.0,54,-99.99,,,-99.99,,2013-01-15 22:33:00,
2013-01-15 17:43:00,37.0,23.0,-100.00,WNW,285,2.0,3.0,56,-99.99,,,-99.99,,2013-01-15 22:43:00,
2013-01-15 17:52:00,37.0,23.0,-100.00,WNW,285,2.0,3.0,56,-99.99,,,-99.99,,2013-01-15 22:52:00,
2013-01-15 18:13:00,36.0,23.0,-100.00,WNW,285,2.0,3.0,57,-99.99,,,-99.99,,2013-01-15 23:13:00,
2013-01-15 20:12:00,32.0,22.0,-100.00,NW,315,0.0,2.0,67,-99.99,,,-99.99,,2013-01-16 01:12:00,
2013-01-15 20:22:00,32.0,22.0,-100.00,NW,315,0.0,2.0,67,-99.99,,,-99.99,,2013-01-16 01:22:00,
2013-01-15 20:33:00,31.0,22.0,-100.00,NE,40,0.0,1.0,70,-99.99,,,-99.99,,2013-01-16 01:33:00,
2013-01-15 20:43:00,31.0,22.0,-100.00,WNW,300,1.0,2.0,69,-99.99,,,-99.99,,2013-01-16 01:43:00,
2013-01-15 20:52:00,30.0,22.0,-100.00,WSW,245,1.0,2.0,71,-99.99,,,-99.99,,2013-01-16 01:52:00,
2013-01-15 21:03:00,30.0,22.0,-100.00,NNW,345,0.0,1.0,72,-99.99,,,-99.99,,2013-01-16 02:03:00,